Time;durP1;ratioP1;P1;durP2;ratioP2;P2;SDS_P1;SDS_P2;PMS_P1;PMS_P2;Temp;Humidity;BMP_temperature;BMP_pressure;BME280_temperature;BME280_humidity;BME280_pressure;Samples;Min_cycle;Max_cycle;Signal;HPM_P1;HPM_P2
2023/10/18 00:00:25;;;;;;;12.47;8.93;;;6.60;84.60;;;8.59;56.97;97296.59;5010729;28;20052;-49
2023/10/18 00:02:54;;;;;;;14.17;9.40;;;6.60;84.60;;;8.55;57.22;97289.06;5009261;28;20042;-46
2023/10/18 00:05:24;;;;;;;13.70;9.00;;;6.50;84.90;;;8.54;57.23;97290.91;5011162;28;20050;-48
2023/10/18 00:07:52;;;;;;;12.50;8.80;;;6.50;84.50;;;8.53;57.28;97283.94;5011131;28;20038;-43
2023/10/18 00:10:20;;;;;;;11.53;9.27;;;6.60;84.60;;;8.55;57.24;97283.78;5017560;28;20060;-47
2023/10/18 00:12:50;;;;;;;12.33;9.57;;;6.70;84.20;;;8.58;57.50;97291.44;5010718;28;20061;-45
2023/10/18 00:15:18;;;;;;;14.00;9.80;;;6.70;84.40;;;8.59;57.59;97291.28;5010962;28;20042;-48
2023/10/18 00:17:45;;;;;;;13.57;9.47;;;6.80;84.00;;;8.62;57.39;97290.13;5010981;28;20046;-45
2023/10/18 00:20:13;;;;;;;11.77;9.27;;;6.80;83.90;;;8.64;57.36;97291.63;5010509;28;20046;-46
2023/10/18 00:22:43;;;;;;;12.93;8.63;;;6.90;83.50;;;8.69;57.51;97282.38;5011023;28;20044;-46
2023/10/18 00:25:12;;;;;;;14.33;9.80;;;6.90;83.50;;;8.70;57.37;97276.06;5011343;28;20046;-48
2023/10/18 00:27:45;;;;;;;11.77;8.97;;;6.90;83.50;;;8.71;57.51;97278.56;5011741;28;20042;-45
2023/10/18 00:30:14;;;;;;;13.70;8.93;;;6.90;83.70;;;8.74;57.20;97282.72;5009705;28;20053;-48
2023/10/18 00:32:42;;;;;;;12.80;9.93;;;6.80;83.60;;;8.73;57.31;97270.47;5011005;28;20049;-46
2023/10/18 00:35:18;;;;;;;12.60;8.97;;;6.80;83.60;;;8.72;57.19;97271.44;5010410;28;20045;-42
2023/10/18 00:37:48;;;;;;;14.93;9.33;;;6.80;83.90;;;8.70;57.37;97268.94;5002560;28;20400;-42
2023/10/18 00:40:21;;;;;;;13.73;10.23;;;6.80;84.10;;;8.67;57.28;97271.91;5009120;28;20069;-42
2023/10/18 00:42:52;;;;;;;11.50;9.23;;;6.70;84.60;;;8.66;57.48;97259.63;5010944;28;20049;-42
2023/10/18 00:45:23;;;;;;;14.73;9.73;;;6.70;84.40;;;8.66;57.54;97262.28;5010019;28;20050;-45
2023/10/18 00:47:51;;;;;;;12.57;8.57;;;6.80;84.10;;;8.66;57.48;97263.09;5001399;28;20441;-45
2023/10/18 00:50:27;;;;;;;13.67;9.10;;;6.80;84.10;;;8.63;57.63;97250.16;5010853;28;20050;-42
2023/10/18 00:52:55;;;;;;;13.53;9.73;;;6.80;83.90;;;8.64;57.83;97243.03;5009414;28;20421;-45
2023/10/18 00:55:23;;;;;;;15.10;10.80;;;6.80;84.40;;;8.65;57.73;97248.19;5000941;28;20054;-47
2023/10/18 00:57:51;;;;;;;15.33;11.13;;;6.80;84.80;;;8.63;57.90;97247.50;5009113;28;20038;-46
2023/10/18 01:00:24;;;;;;;14.40;10.30;;;6.70;85.50;;;8.60;57.96;97244.34;5009147;28;20060;-48
2023/10/18 01:02:57;;;;;;;11.80;8.95;;;6.60;86.10;;;8.60;58.00;97233.72;5010503;28;20042;-47
2023/10/18 01:05:25;;;;;;;15.90;10.43;;;6.60;86.00;;;8.61;58.03;97228.28;5009471;28;20046;-45
2023/10/18 01:07:53;;;;;;;12.17;9.00;;;6.70;85.90;;;8.60;57.83;97210.66;5010511;28;20045;-43
2023/10/18 01:10:23;;;;;;;14.03;10.17;;;6.70;85.90;;;8.63;57.96;97217.50;5010070;28;20057;-47
2023/10/18 01:12:54;;;;;;;16.50;10.37;;;6.70;85.90;;;8.63;58.20;97217.50;5010382;28;20042;-48
2023/10/18 01:15:23;;;;;;;16.87;10.40;;;6.70;85.80;;;8.64;58.09;97213.84;5012987;28;20046;-45
2023/10/18 01:17:50;;;;;;;12.40;9.93;;;6.70;85.80;;;8.64;57.96;97216.50;5012548;28;20053;-43
2023/10/18 01:23:01;;;;;;;14.97;11.20;;;6.70;85.80;;;8.63;58.12;97214.84;5014006;28;20417;-47
2023/10/18 01:25:29;;;;;;;15.73;10.07;;;6.60;85.80;;;8.62;58.13;97206.03;5012472;28;20053;-45
2023/10/18 01:27:58;;;;;;;15.40;11.23;;;6.60;86.00;;;8.61;57.96;97215.00;5012177;28;20049;-44
2023/10/18 01:30:29;;;;;;;16.60;10.53;;;6.60;86.00;;;8.62;58.04;97205.22;5013758;28;20046;-45
2023/10/18 01:32:57;;;;;;;16.60;9.33;;;6.70;85.90;;;8.60;58.36;97202.72;5011751;28;20042;-45
2023/10/18 01:35:25;;;;;;;14.30;10.30;;;6.60;86.20;;;8.61;58.00;97203.56;5012231;28;20105;-47
2023/10/18 01:37:53;;;;;;;16.93;10.13;;;6.70;86.00;;;8.62;58.00;97195.41;5013412;28;20490;-44
2023/10/18 01:40:23;;;;;;;13.93;10.30;;;6.80;85.40;;;8.63;58.04;97196.28;5013274;28;20053;-45
2023/10/18 01:42:55;;;;;;;15.07;10.20;;;6.80;84.40;;;8.63;58.04;97191.78;5013556;28;20038;-47
2023/10/18 01:45:26;;;;;;;19.23;11.97;;;6.80;84.80;;;8.63;57.82;97191.78;5013579;28;20054;-46
2023/10/18 01:47:57;;;;;;;15.27;10.17;;;6.80;84.90;;;8.62;57.95;97184.81;4996219;28;20049;-47
2023/10/18 01:50:26;;;;;;;16.23;12.03;;;6.80;84.70;;;8.63;58.20;97183.00;5013663;28;20050;-45
2023/10/18 01:52:54;;;;;;;14.67;9.93;;;6.80;85.00;;;8.62;58.10;97186.63;5013539;28;20049;-47
2023/10/18 01:55:22;;;;;;;16.17;10.30;;;6.80;85.20;;;8.63;58.21;97183.81;5013399;28;20049;-45
2023/10/18 01:57:50;;;;;;;15.40;11.17;;;6.80;85.30;;;8.63;58.19;97183.81;5011999;28;20077;-49
2023/10/18 02:00:25;;;;;;;17.57;11.20;;;6.80;85.10;;;8.65;58.32;97175.72;5011570;28;20061;-44
2023/10/18 02:02:52;;;;;;;15.60;10.75;;;6.80;85.20;;;8.65;58.25;97167.75;5013241;28;20042;-44
2023/10/18 02:05:21;;;;;;;16.23;11.90;;;6.80;85.40;;;8.65;58.36;97165.91;5011670;28;20061;-45
2023/10/18 02:07:49;;;;;;;17.43;11.13;;;6.80;85.60;;;8.64;58.52;97171.38;5011447;28;20498;-44
2023/10/18 02:10:23;;;;;;;16.50;11.40;;;6.80;85.60;;;8.65;58.05;97171.22;5011587;28;20529;-42
2023/10/18 02:12:51;;;;;;;17.27;11.27;;;6.70;86.10;;;8.63;58.47;97175.88;5012676;28;20042;-46
2023/10/18 02:15:18;;;;;;;17.13;12.33;;;6.70;86.10;;;8.55;58.53;97167.88;5028078;28;20080;-45
2023/10/18 02:17:46;;;;;;;14.53;10.87;;;6.50;86.80;;;8.48;58.70;97169.50;5012944;28;20517;-47
2023/10/18 02:20:25;;;;;;;13.83;9.47;;;6.50;86.80;;;8.40;58.55;97172.09;5012394;28;20053;-45
2023/10/18 02:23:00;;;;;;;15.93;10.90;;;6.40;87.10;;;8.36;58.44;97176.88;5001731;28;20041;-45
2023/10/18 02:28:23;;;;;;;14.57;9.97;;;6.20;87.70;;;8.20;58.93;97171.47;5011368;28;20497;-44
2023/10/18 02:33:44;;;;;;;15.65;10.70;;;6.00;89.20;;;8.04;59.11;97172.22;5012578;28;20354;-45
2023/10/18 02:36:12;;;;;;;14.43;10.00;;;5.90;90.00;;;8.04;59.20;97167.75;5011188;28;20050;-46
2023/10/18 02:38:41;;;;;;;17.30;12.43;;;6.00;90.20;;;8.04;59.12;97157.16;5010775;28;20049;-46
2023/10/18 02:41:15;;;;;;;17.00;12.10;;;6.00;90.10;;;8.05;59.18;97161.47;5028192;28;20054;-48
2023/10/18 02:43:45;;;;;;;15.53;12.17;;;6.00;90.10;;;8.05;59.59;97160.66;5012462;28;20045;-42
2023/10/18 02:46:15;;;;;;;17.00;11.40;;;6.00;90.70;;;8.07;59.58;97158.66;5012623;28;20045;-44
2023/10/18 02:48:44;;;;;;;19.47;12.83;;;6.10;90.80;;;8.13;59.67;97147.44;5010704;28;20497;-42
2023/10/18 02:51:12;;;;;;;17.07;12.03;;;6.30;90.40;;;8.23;59.65;97144.66;5012111;28;20046;-43
2023/10/18 02:53:41;;;;;;;16.77;11.87;;;6.50;89.30;;;8.29;59.58;97141.38;5019256;28;20060;-45
2023/10/18 02:56:20;;;;;;;16.43;12.57;;;6.50;88.40;;;8.34;59.34;97152.34;5010293;28;20042;-43
2023/10/18 02:58:48;;;;;;;17.03;11.67;;;6.50;87.90;;;8.37;59.05;97145.88;5003386;28;20422;-43
2023/10/18 03:01:19;;;;;;;16.47;11.73;;;6.50;87.30;;;8.39;59.13;97147.38;5011705;28;20053;-43
2023/10/18 03:03:49;;;;;;;16.07;10.53;;;6.60;87.30;;;8.43;59.00;97150.56;5005059;28;20042;-44
2023/10/18 03:06:17;;;;;;;15.30;10.33;;;6.60;86.70;;;8.43;58.90;97147.91;5010642;28;20050;-47
2023/10/18 03:08:49;;;;;;;16.73;10.43;;;6.60;85.70;;;8.42;58.71;97147.09;5011703;28;20034;-48
2023/10/18 03:11:21;;;;;;;14.30;10.57;;;6.60;84.90;;;8.40;58.46;97143.75;5010813;28;20528;-44
2023/10/18 03:13:51;;;;;;;13.20;8.87;;;6.50;84.30;;;8.39;58.25;97141.25;5011442;28;20042;-46
2023/10/18 03:19:10;;;;;;;14.67;9.83;;;6.40;84.40;;;8.32;58.04;97135.75;5010602;28;20045;-50
2023/10/18 03:21:41;;;;;;;13.73;9.27;;;6.30;84.20;;;8.29;57.79;97128.09;5010882;28;20065;-45
2023/10/18 03:24:12;;;;;;;14.17;10.30;;;6.20;84.10;;;8.23;57.70;97132.22;5019471;28;20038;-49
2023/10/18 03:26:41;;;;;;;13.90;10.07;;;6.20;84.10;;;8.18;57.61;97123.94;5010434;28;20057;-47
2023/10/18 03:29:11;;;;;;;16.90;10.33;;;6.00;84.30;;;8.15;57.47;97121.59;5010221;28;20044;-47
2023/10/18 03:31:44;;;;;;;15.13;9.67;;;6.10;84.20;;;8.10;57.50;97118.56;5010612;28;20514;-45
2023/10/18 03:34:22;;;;;;;11.80;8.17;;;6.00;84.10;;;8.05;57.62;97116.41;5011899;28;20061;-45
2023/10/18 03:36:52;;;;;;;14.43;9.90;;;6.00;83.90;;;8.00;57.29;97128.47;5001792;28;20046;-49
2023/10/18 03:39:23;;;;;;;13.97;9.17;;;5.90;84.40;;;7.97;57.36;97129.63;5010608;28;20053;-45
2023/10/18 03:41:51;;;;;;;13.40;9.37;;;5.90;84.70;;;7.93;57.69;97119.47;5002687;28;20042;-48
2023/10/18 03:44:32;;;;;;;13.40;10.20;;;5.80;84.60;;;7.90;57.49;97125.94;5010562;28;20052;-45
2023/10/18 03:47:12;;;;;;;13.93;10.10;;;5.80;84.80;;;7.88;57.48;97120.78;5004693;28;20042;-44
2023/10/18 03:49:41;;;;;;;14.10;10.97;;;5.80;85.10;;;7.86;57.67;97114.81;5009813;28;20050;-47
2023/10/18 03:57:28;;;;;;;18.27;12.00;;;5.80;85.80;;;7.86;58.05;97106.03;5010395;28;20462;-47
2023/10/18 03:59:58;;;;;;;14.17;10.73;;;5.80;86.10;;;7.84;58.19;97102.72;5009633;28;20505;-46
2023/10/18 04:02:27;;;;;;;16.67;10.70;;;5.80;86.80;;;7.84;58.25;97102.72;5010645;28;20045;-46
2023/10/18 04:04:58;;;;;;;17.00;12.07;;;5.80;87.00;;;7.87;58.52;97097.06;5011014;28;20045;-45
2023/10/18 04:07:26;;;;;;;15.97;11.97;;;5.90;87.00;;;7.90;58.51;97099.44;5011112;28;20045;-44
2023/10/18 04:12:29;;;;;;;;;;;6.00;86.70;;;7.92;58.34;97092.16;5011221;28;20418;-45
2023/10/18 04:14:56;;;;;;;19.93;11.63;;;6.00;87.00;;;7.97;58.25;97081.06;5011053;28;19922;-49
2023/10/18 04:22:50;;;;;;;14.27;11.23;;;6.10;87.30;;;7.98;58.50;97070.31;5010806;28;20049;-47
2023/10/18 04:25:29;;;;;;;15.00;11.63;;;6.00;87.30;;;7.98;58.57;97061.53;5010904;28;20054;-45
2023/10/18 04:27:58;;;;;;;16.90;11.60;;;6.00;87.50;;;7.99;58.75;97055.25;5003450;28;20489;-46
2023/10/18 04:30:30;;;;;;;18.47;12.83;;;6.10;87.30;;;7.99;58.76;97057.91;5009643;28;20057;-45
2023/10/18 04:33:00;;;;;;;17.47;13.27;;;6.10;86.60;;;7.96;58.58;97066.97;5003039;28;20045;-44
2023/10/18 04:35:36;;;;;;;16.07;10.93;;;6.00;87.10;;;7.92;58.67;97068.28;5010993;28;20050;-46
2023/10/18 04:38:19;;;;;;;16.40;11.57;;;5.90;87.70;;;7.91;58.69;97066.66;5008445;28;20037;-45
2023/10/18 04:43:32;;;;;;;18.37;13.30;;;5.90;87.70;;;7.94;58.52;97063.66;5010503;28;20042;-46
2023/10/18 04:46:07;;;;;;;18.23;12.97;;;6.00;87.30;;;7.95;58.69;97057.38;5003263;28;20041;-42
2023/10/18 04:54:15;;;;;;;18.83;12.33;;;6.10;86.60;;;7.97;58.61;97044.81;5014361;28;20433;-43
2023/10/18 04:56:46;;;;;;;19.93;12.00;;;6.00;86.50;;;7.97;58.51;97036.00;5012069;28;20050;-45
2023/10/18 05:04:34;;;;;;;17.13;11.77;;;6.10;86.20;;;7.92;58.68;97030.38;5014166;28;20069;-45
2023/10/18 05:07:14;;;;;;;17.33;12.17;;;6.10;86.50;;;7.92;58.79;97025.88;5006791;28;20497;-44
2023/10/18 05:09:43;;;;;;;17.67;11.67;;;6.10;86.30;;;7.92;58.67;97030.38;5013734;28;20041;-43
2023/10/18 05:14:53;;;;;;;18.63;11.97;;;5.90;86.70;;;7.90;58.60;97025.22;5014030;28;20046;-44
2023/10/18 05:17:32;;;;;;;16.73;11.82;;;5.90;86.70;;;7.90;58.66;97019.91;5013949;28;20042;-43
2023/10/18 05:20:21;;;;;;;21.87;13.63;;;5.90;86.70;;;7.91;58.65;97023.38;5006016;28;20040;-43
2023/10/18 05:22:50;;;;;;;29.20;16.83;;;6.00;86.40;;;7.91;58.88;97020.72;5013742;28;20050;-43
2023/10/18 05:28:02;;;;;;;25.97;16.93;;;6.00;86.40;;;7.92;58.50;97025.06;5013596;28;20049;-43
2023/10/18 05:34:04;;;;;;;21.80;13.97;;;6.00;85.80;;;7.90;58.65;97027.88;5008083;28;20046;-45
2023/10/18 05:36:29;;;;;;;20.10;12.27;;;5.90;86.10;;;7.87;58.68;97026.38;5008539;28;20068;-46
2023/10/18 05:41:51;;;;;;;19.57;11.80;;;5.80;86.60;;;7.81;58.51;97020.84;5013364;28;20050;-42
2023/10/18 05:44:20;;;;;;;16.60;11.67;;;5.80;87.00;;;7.78;58.49;97010.59;5012386;28;20417;-45
2023/10/18 05:46:50;;;;;;;19.33;11.93;;;5.70;87.00;;;7.76;58.80;97017.88;5012087;28;20057;-46
2023/10/18 05:49:25;;;;;;;17.17;11.13;;;5.70;87.00;;;7.74;58.47;97025.16;5013045;28;20498;-42
2023/10/18 05:54:39;;;;;;;15.93;11.83;;;5.70;87.10;;;7.71;58.68;97017.50;5013368;28;20516;-44
2023/10/18 05:57:07;;;;;;;17.97;11.90;;;5.70;87.20;;;7.71;58.74;97012.22;5019214;28;20054;-45
2023/10/18 05:59:35;;;;;;;15.33;10.87;;;5.70;86.90;;;7.71;58.62;97015.69;5012548;28;20041;-44
2023/10/18 06:02:23;;;;;;;23.73;13.27;;;5.70;86.80;;;7.71;58.45;97007.72;5013229;28;20422;-46
2023/10/18 06:04:55;;;;;;;19.50;13.20;;;5.80;86.60;;;7.71;58.44;97017.50;5013079;28;20053;-42
2023/10/18 06:07:26;;;;;;;17.73;12.57;;;5.70;86.70;;;7.69;58.54;97005.25;5011598;28;20045;-43
2023/10/18 06:12:27;;;;;;;17.23;12.10;;;5.80;86.80;;;7.69;59.07;96999.13;5012955;28;20046;-43
2023/10/18 06:14:57;;;;;;;17.63;11.13;;;5.80;87.10;;;7.69;58.85;97001.75;5013073;28;20057;-45
2023/10/18 06:20:27;;;;;;;22.07;11.43;;;5.80;87.80;;;7.73;58.80;96996.97;5005489;28;20053;-43
2023/10/18 06:25:49;;;;;;;19.17;11.87;;;5.90;87.00;;;7.75;59.01;96987.88;5001005;28;20189;-45
2023/10/18 06:28:21;;;;;;;15.80;10.73;;;5.80;87.20;;;7.78;59.03;96984.91;5003332;28;20490;-44
2023/10/18 06:30:56;;;;;;;14.13;10.43;;;5.90;87.30;;;7.81;59.29;96997.00;5007197;28;20038;-42
2023/10/18 06:33:26;;;;;;;15.93;11.33;;;5.90;87.40;;;7.82;59.19;96988.91;5008725;28;20065;-45
2023/10/18 06:35:53;;;;;;;16.60;11.30;;;5.90;87.10;;;7.86;58.93;96990.25;5006217;28;20382;-43
2023/10/18 06:38:23;;;;;;;17.57;11.80;;;5.90;86.70;;;7.89;59.05;96995.25;5007896;28;20513;-44
2023/10/18 06:40:53;;;;;;;18.43;11.87;;;5.90;87.00;;;7.90;58.93;96993.41;5007692;28;20053;-45
2023/10/18 06:43:33;;;;;;;14.37;10.90;;;5.90;87.30;;;7.94;59.22;96991.28;5007362;28;20046;-45
2023/10/18 06:46:04;;;;;;;16.23;10.53;;;6.00;87.50;;;7.97;59.17;96990.94;5006958;28;20053;-43
2023/10/18 06:48:33;;;;;;;17.07;12.30;;;6.00;87.40;;;8.01;59.27;96990.47;5007875;28;20055;-47
2023/10/18 06:51:01;;;;;;;17.70;11.67;;;6.10;87.40;;;8.04;59.22;96991.97;5007638;28;20069;-43
2023/10/18 06:53:29;;;;;;;16.87;11.57;;;6.10;87.60;;;8.08;59.00;96985.34;5007237;28;20046;-43
2023/10/18 06:56:04;;;;;;;15.97;10.50;;;6.20;87.30;;;8.12;59.21;96991.16;5005541;28;20058;-45
2023/10/18 07:01:08;;;;;;;19.23;12.07;;;6.30;87.00;;;8.20;59.28;96997.31;5003000;28;20038;-43
2023/10/18 07:03:37;;;;;;;17.13;11.57;;;6.30;87.20;;;8.25;59.47;96981.72;5004552;28;20520;-44
2023/10/18 07:06:16;;;;;;;17.77;11.77;;;6.40;87.40;;;8.35;59.49;96975.47;5005532;28;20064;-45
2023/10/18 07:08:45;;;;;;;17.03;11.53;;;6.50;87.30;;;8.42;59.51;96974.66;5006964;28;20050;-47
2023/10/18 07:11:19;;;;;;;16.87;11.93;;;6.60;87.10;;;8.47;59.54;96982.97;5005414;28;20041;-45
2023/10/18 07:14:04;;;;;;;18.30;11.67;;;6.70;87.10;;;8.53;59.48;96975.34;5006972;28;20046;-45
2023/10/18 07:21:46;;;;;;;19.23;12.33;;;6.80;86.70;;;8.62;59.41;96955.78;5008540;28;20064;-45
2023/10/18 07:24:17;;;;;;;16.53;11.37;;;6.80;86.50;;;8.63;59.41;96947.66;5007449;28;20045;-45
2023/10/18 07:26:48;;;;;;;18.30;12.43;;;6.70;86.70;;;8.63;59.59;96941.53;5002861;28;20417;-44
2023/10/18 07:29:16;;;;;;;19.50;11.97;;;6.80;86.20;;;8.60;59.56;96937.38;5006973;28;20037;-45
2023/10/18 07:31:46;;;;;;;14.03;11.10;;;6.80;86.60;;;8.62;59.47;96929.25;5007470;28;20042;-46
2023/10/18 07:34:31;;;;;;;16.53;12.57;;;6.80;86.80;;;8.62;59.57;96930.06;5007426;28;20441;-44
2023/10/18 07:37:16;;;;;;;22.43;12.33;;;6.90;86.50;;;8.66;59.53;96919.97;5005544;28;20057;-46
2023/10/18 07:39:49;;;;;;;20.77;12.70;;;7.00;85.60;;;8.67;59.59;96927.75;5006482;28;20497;-44
2023/10/18 07:42:20;;;;;;;18.00;12.70;;;7.00;85.50;;;8.73;59.69;96936.88;4998745;28;20045;-44
2023/10/18 07:44:53;;;;;;;21.50;14.20;;;7.00;86.00;;;8.76;59.58;96919.78;5007735;28;20046;-43
2023/10/18 07:47:25;;;;;;;16.93;12.37;;;7.00;86.40;;;8.78;59.51;96916.00;5006310;28;20425;-45
2023/10/18 07:49:57;;;;;;;19.67;12.67;;;7.00;86.60;;;8.82;59.57;96916.47;5006226;28;20505;-46
2023/10/18 07:52:26;;;;;;;24.10;14.40;;;7.00;86.90;;;8.84;59.39;96912.66;5006691;28;20501;-46
2023/10/18 07:54:54;;;;;;;21.70;14.93;;;7.10;87.00;;;8.87;59.59;96906.16;5005523;28;20056;-47
2023/10/18 07:57:31;;;;;;;19.30;12.90;;;7.10;87.40;;;8.92;59.68;96913.63;5005287;28;20741;-43
2023/10/18 08:02:44;;;;;;;20.70;12.83;;;7.20;86.90;;;8.96;59.63;96938.84;5006299;28;20057;-43
2023/10/18 08:05:18;;;;;;;21.93;14.13;;;7.30;86.60;;;9.02;59.81;96928.38;5005299;28;20046;-44
2023/10/18 08:07:51;;;;;;;17.42;12.60;;;7.40;86.40;;;9.07;59.66;96920.75;5006001;28;20037;-45
2023/10/18 08:10:22;;;;;;;22.23;14.13;;;7.50;85.80;;;9.12;59.77;96917.56;5006058;28;20417;-45
2023/10/18 08:13:04;;;;;;;18.27;13.07;;;7.50;85.70;;;9.16;59.70;96910.91;5004933;28;20069;-46
2023/10/18 08:15:36;;;;;;;18.50;13.70;;;7.60;85.20;;;9.20;59.61;96914.06;5005066;28;20574;-46
2023/10/18 08:18:16;;;;;;;21.40;13.53;;;7.60;84.70;;;9.29;59.63;96917.53;5005674;28;20493;-45
2023/10/18 08:26:05;;;;;;;19.80;13.17;;;7.80;83.30;;;9.39;58.93;96932.28;5004953;28;20053;-45
2023/10/18 08:28:40;;;;;;;16.83;12.47;;;7.80;83.70;;;9.39;59.14;96929.63;5004380;28;20045;-44
2023/10/18 08:31:34;;;;;;;22.93;14.43;;;7.80;83.30;;;9.43;59.14;96924.78;5005921;28;20053;-44
2023/10/18 08:34:10;;;;;;;21.40;13.90;;;7.90;83.50;;;9.48;59.03;96933.09;5007918;28;20561;-47
2023/10/18 08:36:38;;;;;;;21.23;13.40;;;7.80;83.40;;;9.51;59.03;96913.31;5009145;28;20527;-43
2023/10/18 08:39:08;;;;;;;20.13;14.03;;;7.90;83.70;;;9.57;59.25;96908.13;5008699;28;20053;-45
2023/10/18 08:41:52;;;;;;;17.67;13.10;;;7.90;83.80;;;9.62;58.88;96902.31;5006193;28;20081;-46
2023/10/18 08:44:24;;;;;;;23.00;14.27;;;8.00;83.90;;;9.68;59.12;96900.78;5005725;28;20068;-43
2023/10/18 08:46:55;;;;;;;20.87;14.63;;;8.10;83.90;;;9.74;59.28;96892.94;5005910;28;20050;-46
2023/10/18 08:49:23;;;;;;;22.07;14.63;;;8.10;83.80;;;9.76;59.14;96896.25;5006192;28;20552;-44
2023/10/18 08:51:56;;;;;;;21.43;13.60;;;8.20;83.40;;;9.78;59.37;96893.41;5006374;28;20474;-44
2023/10/18 08:54:30;;;;;;;19.63;13.97;;;8.30;83.40;;;9.78;59.49;96893.41;5008677;28;20053;-44
2023/10/18 08:56:59;;;;;;;22.33;14.20;;;8.30;83.30;;;9.83;59.03;96897.22;5006880;28;20045;-43
2023/10/18 08:59:27;;;;;;;20.27;13.70;;;8.40;83.50;;;9.91;59.12;96891.00;5006228;28;20042;-49
2023/10/18 09:02:17;;;;;;;20.57;14.20;;;8.50;83.50;;;9.98;59.37;96907.09;5008637;28;20057;-45
2023/10/18 09:04:59;;;;;;;21.70;15.83;;;8.50;83.70;;;10.07;59.19;96891.91;5008390;28;20046;-43
2023/10/18 09:07:42;;;;;;;19.33;13.53;;;8.60;83.60;;;10.15;59.51;96890.00;5008774;28;20420;-46
2023/10/18 09:10:33;;;;;;;22.58;14.45;;;8.70;83.60;;;10.22;59.12;96883.00;5008724;28;20048;-43
2023/10/18 09:13:33;;;;;;;20.20;14.27;;;8.80;83.00;;;10.34;59.06;96878.13;5008356;28;20038;-47
2023/10/18 09:18:34;;;;;;;20.33;14.17;;;9.00;82.60;;;10.50;59.18;96863.03;5008721;28;20049;-47
2023/10/18 09:21:17;;;;;;;21.38;15.00;;;9.10;83.00;;;10.58;59.04;96854.94;5008584;28;20506;-42
2023/10/18 09:23:47;;;;;;;21.73;13.50;;;9.20;82.30;;;10.63;58.75;96845.41;5008192;28;20070;-42
2023/10/18 09:26:26;;;;;;;20.13;13.83;;;9.30;82.30;;;10.68;58.87;96844.88;5007690;28;20045;-46
2023/10/18 09:28:59;;;;;;;20.60;13.57;;;9.30;82.10;;;10.73;59.31;96845.16;5005906;28;20442;-45
2023/10/18 09:31:28;;;;;;;23.00;14.02;;;9.40;82.00;;;10.77;59.26;96834.97;5008008;28;20482;-42
2023/10/18 09:33:58;;;;;;;22.47;13.63;;;9.40;81.30;;;10.81;58.97;96838.94;5006557;28;20050;-43
2023/10/18 09:36:27;;;;;;;20.00;13.57;;;9.40;81.10;;;10.88;58.95;96844.38;5005481;28;20046;-43
2023/10/18 09:38:57;;;;;;;19.47;12.50;;;9.50;81.10;;;10.94;59.11;96843.63;5006877;28;20637;-43
2023/10/18 09:41:31;;;;;;;18.43;13.63;;;9.60;80.70;;;11.00;58.47;96845.56;5007765;28;20398;-44
2023/10/18 09:44:01;;;;;;;20.42;11.82;;;9.70;80.20;;;11.04;58.60;96842.34;5008476;28;20057;-43
2023/10/18 09:46:29;;;;;;;16.77;12.50;;;9.70;79.80;;;11.09;58.62;96846.28;5007515;28;20407;-44
2023/10/18 09:48:59;;;;;;;17.57;12.70;;;9.80;79.50;;;11.13;58.26;96837.75;5006980;28;20046;-46
2023/10/18 09:51:27;;;;;;;20.57;13.67;;;9.80;79.10;;;11.18;58.52;96839.84;5022761;28;20046;-45
2023/10/18 09:53:55;;;;;;;15.57;11.47;;;9.90;78.90;;;11.25;58.22;96834.63;5008914;28;20474;-47
2023/10/18 09:56:35;;;;;;;17.33;12.63;;;9.90;78.60;;;11.29;58.16;96819.91;5008873;28;20045;-44
2023/10/18 09:59:05;;;;;;;17.37;11.10;;;10.00;78.70;;;11.35;58.17;96820.00;5007727;28;20037;-45
2023/10/18 10:04:17;;;;;;;18.17;12.43;;;10.20;78.10;;;11.48;57.76;96826.50;5008448;28;20054;-47
2023/10/18 10:06:47;;;;;;;21.60;12.87;;;10.20;77.70;;;11.53;57.95;96821.44;5004307;28;20045;-47
2023/10/18 10:09:15;;;;;;;17.07;12.53;;;10.30;77.20;;;11.57;57.50;96823.56;5011947;28;20057;-44
2023/10/18 10:11:47;;;;;;;20.60;12.80;;;10.40;77.90;;;11.62;57.59;96818.47;5012537;28;20041;-43
2023/10/18 10:14:17;;;;;;;19.60;13.07;;;10.40;77.10;;;11.69;57.62;96817.72;5012889;28;20422;-46
2023/10/18 10:16:58;;;;;;;16.47;12.27;;;10.50;77.20;;;11.74;57.67;96807.31;5012883;28;20042;-45
2023/10/18 10:19:32;;;;;;;17.93;12.37;;;10.50;77.30;;;11.81;58.00;96801.03;5011738;28;20042;-46
2023/10/18 10:22:05;;;;;;;17.70;12.73;;;10.60;76.90;;;11.89;57.48;96799.28;5011779;28;20056;-49
2023/10/18 10:24:45;;;;;;;17.40;12.20;;;10.70;77.10;;;11.96;57.34;96795.69;5006185;28;20050;-45
2023/10/18 10:27:39;;;;;;;19.63;11.57;;;10.70;76.20;;;12.04;57.05;96797.41;5012711;28;20300;-43
2023/10/18 10:32:58;;;;;;;14.77;10.25;;;10.90;76.30;;;12.21;56.63;96796.13;5012902;28;20042;-44
2023/10/18 10:35:32;;;;;;;13.98;10.55;;;11.00;74.30;;;12.25;56.25;96787.72;5011731;28;20421;-44
2023/10/18 10:38:09;;;;;;;13.88;10.35;;;11.00;74.10;;;12.29;56.28;96781.81;5012606;28;20046;-46
2023/10/18 10:40:44;;;;;;;14.50;10.57;;;11.10;73.70;;;12.39;56.18;96778.81;5006104;28;20034;-42
2023/10/18 10:43:14;;;;;;;13.35;10.77;;;11.10;73.90;;;12.45;56.19;96769.19;5012471;28;20041;-43
2023/10/18 10:50:50;;;;;;;14.70;10.82;;;11.40;72.30;;;12.66;55.88;96753.13;5012415;28;20045;-41
2023/10/18 10:53:43;;;;;;;14.85;11.02;;;11.50;72.50;;;12.77;55.57;96749.88;5012419;28;20056;-43
2023/10/18 10:56:17;;;;;;;13.23;9.73;;;11.60;69.90;;;12.87;54.98;96746.03;5011873;28;20042;-47
2023/10/18 10:58:58;;;;;;;;;;;11.70;71.00;;;12.90;55.35;96749.13;5012047;28;20045;-44
2023/10/18 11:01:43;;;;;;;14.75;10.00;;;11.80;68.80;;;13.00;55.00;96760.28;5011050;28;20346;-46
2023/10/18 11:04:46;;;;;;;13.85;10.70;;;11.90;69.90;;;13.06;55.13;96761.34;5012063;28;20054;-47
2023/10/18 11:07:21;;;;;;;15.45;10.98;;;12.00;69.30;;;13.15;54.80;96757.47;5011632;28;20057;-45
2023/10/18 11:09:51;;;;;;;13.65;9.93;;;12.00;70.40;;;13.23;54.64;96745.78;5012013;28;20038;-44
2023/10/18 11:12:18;;;;;;;13.00;9.65;;;12.10;70.60;;;13.29;54.50;96741.50;5018898;28;20414;-44
2023/10/18 11:14:53;;;;;;;14.70;11.02;;;12.20;70.30;;;13.36;54.22;96739.72;5011960;28;20042;-43
2023/10/18 11:17:23;;;;;;;10.82;8.48;;;12.20;69.60;;;13.39;54.04;96729.41;5010632;28;20536;-46
2023/10/18 11:19:58;;;;;;;12.52;9.27;;;12.20;69.40;;;13.43;54.14;96727.16;5011700;28;20049;-45
2023/10/18 11:22:33;;;;;;;15.65;10.73;;;12.30;69.60;;;13.50;53.97;96721.84;5010894;28;20694;-46
2023/10/18 11:25:02;;;;;;;13.00;9.90;;;12.40;69.40;;;13.53;53.96;96714.25;5012002;28;20042;-46
2023/10/18 11:27:37;;;;;;;14.40;10.50;;;12.30;69.20;;;13.54;53.52;96707.03;5011627;28;20038;-45
2023/10/18 11:32:39;;;;;;;13.38;9.60;;;12.30;68.60;;;13.50;53.62;96698.59;5003185;28;20045;-45
2023/10/18 11:35:09;;;;;;;14.25;10.13;;;12.30;69.20;;;13.51;53.18;96691.41;5011712;28;20060;-46
2023/10/18 11:37:38;;;;;;;13.05;9.70;;;12.30;68.60;;;13.53;53.30;96689.34;5003914;28;20049;-44
2023/10/18 11:40:16;;;;;;;14.63;9.18;;;12.30;69.00;;;13.55;53.26;96677.44;5009977;28;20043;-44
2023/10/18 11:42:53;;;;;;;14.07;9.93;;;12.30;68.50;;;13.58;53.14;96676.19;5011741;28;20041;-47
2023/10/18 11:45:27;;;;;;;11.55;9.40;;;12.30;67.70;;;13.58;52.90;96662.81;5011048;28;20050;-46
2023/10/18 11:47:55;;;;;;;10.93;8.93;;;12.30;68.50;;;13.60;52.86;96663.44;5011301;28;20278;-45
2023/10/18 11:50:26;;;;;;;14.43;9.90;;;12.30;68.60;;;13.61;53.06;96667.78;5010742;28;20109;-48
2023/10/18 11:52:53;;;;;;;12.50;9.18;;;12.20;68.80;;;13.62;53.02;96652.53;5011400;28;20046;-48
2023/10/18 11:55:21;;;;;;;10.10;8.75;;;12.30;68.70;;;13.62;52.86;96648.00;5004585;28;20046;-48
2023/10/18 11:57:51;;;;;;;12.73;9.23;;;12.30;68.70;;;13.62;52.70;96647.19;5010700;28;20054;-46
2023/10/18 12:00:26;;;;;;;12.18;8.77;;;12.30;68.70;;;13.59;52.95;96640.41;5017741;28;20101;-44
2023/10/18 12:02:55;;;;;;;12.43;8.93;;;12.20;68.80;;;13.60;52.74;96631.34;5009762;28;20490;-45
2023/10/18 12:05:23;;;;;;;11.68;8.90;;;12.20;68.60;;;13.62;52.70;96629.28;5010966;28;20049;-43
2023/10/18 12:07:53;;;;;;;13.05;8.93;;;12.30;68.80;;;13.65;52.76;96622.69;5009283;28;20452;-47
2023/10/18 12:10:36;;;;;;;13.07;8.75;;;12.30;68.60;;;13.70;52.58;96628.25;5010800;28;20049;-46